Aviation Digital Data Service (ADDS)

Output produced by METARs form (0459 UTC 02 March 2015)
found at http://www.aviationweather.gov/adds/metars/
 
KPIA 020135Z 0202/0224 30005KT P6SM SCT025 BKN200 
     FM021500 VRB03KT P6SM BKN120